Thunder radar more information blitzortung!


Radar de pluja more information rain snow radar


Visita la nostra xarxa de llocs de meteo:

Template documentation
and downloads

And another site



No particular awareness of the weather is required.    There are no Weather-warnings

Pagina Historial Weather Underground text

Diari Resum Novembre 4, 2017 Unitats:  Tant    Imperial   Mètric
« Previous Dia
SegĂźent Dia »
Diari Setmana Mensual Anual Personalitzada
  Maxima: Minima: Media:
Temperatura: 72 °F /  22.2 °C 55.2 °F /  12.9 °C 60.1 °F /  15.6 °C
Punt de rosada: 59.5 °F /  15.3 °C 51.6 °F /  10.9 °C 54.5 °F /  12.5 °C
Humitat: 91 % 63 % 82 %
Wind Speed: 8.1 mph /  13.0 km/h - 1.8 mph /  2.9 km/h
RĂ fegues de vent: 8.1 mph /  13.0 km/h - -
Vent:- - SSE
Pression baro: 30 in /  1014.8 hPa 29.8 in /  1010.0 hPa -
Precipitacions: 0.67 in /  17.0 mm    
Historical Graphs
 
 
Dades de taula per Novembre 4, 2017
Temps Temperatura Punt de rosada Pression baro Vent Wind Speed RĂ fegues de vent Humitat Rainfall Rate (Hourly)
00:00 57 °F /  13.9 °C 53.2 °F /  11.8 °C 30 in /  1014.8 hPa NNE 2.3 mph /  3.7 km/h 2.3 mph /  3.7 km/h 87 % 0 in /  0.0 mm
00:05 57 °F /  13.9 °C 53.2 °F /  11.8 °C 30 in /  1014.8 hPa Calm     87 % 0 in /  0.0 mm
00:10 57 °F /  13.9 °C 53.2 °F /  11.8 °C 30 in /  1014.8 hPa NNE 1.2 mph /  1.9 km/h 1.2 mph /  1.9 km/h 87 % 0 in /  0.0 mm
00:15 56.8 °F /  13.8 °C 53.1 °F /  11.7 °C 30 in /  1014.8 hPa Calm     87 % 0 in /  0.0 mm
00:20 56.5 °F /  13.6 °C 52.7 °F /  11.5 °C 30 in /  1014.8 hPa WSW 1.2 mph /  1.9 km/h 1.2 mph /  1.9 km/h 87 % 0 in /  0.0 mm
00:25 56.1 °F /  13.4 °C 52 °F /  11.1 °C 30 in /  1014.8 hPa WSW 1.2 mph /  1.9 km/h   86 % 0 in /  0.0 mm
00:30 56.1 °F /  13.4 °C 52.3 °F /  11.3 °C 30 in /  1014.8 hPa Calm     87 % 0 in /  0.0 mm
00:35 56.1 °F /  13.4 °C 52.3 °F /  11.3 °C 30 in /  1014.8 hPa NNE 2.3 mph /  3.7 km/h 2.3 mph /  3.7 km/h 87 % 0 in /  0.0 mm
00:40 56.1 °F /  13.4 °C 52.3 °F /  11.3 °C 29.9 in /  1013.8 hPa NNE 1.2 mph /  1.9 km/h   87 % 0 in /  0.0 mm
00:45 56.1 °F /  13.4 °C 52.5 °F /  11.4 °C 29.9 in /  1013.8 hPa Calm     88 % 0 in /  0.0 mm
00:50 56.1 °F /  13.4 °C 52.5 °F /  11.4 °C 29.9 in /  1013.8 hPa Calm     88 % 0 in /  0.0 mm
00:55 56.1 °F /  13.4 °C 52.5 °F /  11.4 °C 30 in /  1014.8 hPa Calm     88 % 0 in /  0.0 mm
01:00 56.1 °F /  13.4 °C 52.5 °F /  11.4 °C 30 in /  1014.8 hPa Calm     88 % 0 in /  0.0 mm
01:05 55.9 °F /  13.3 °C 52.3 °F /  11.3 °C 30 in /  1014.8 hPa Calm     88 % 0 in /  0.0 mm
01:10 55.8 °F /  13.2 °C 52.3 °F /  11.3 °C 29.9 in /  1013.8 hPa NNE 0.9 mph /  1.4 km/h   88 % 0 in /  0.0 mm
01:15 55.8 °F /  13.2 °C 52.3 °F /  11.3 °C 29.9 in /  1013.8 hPa Calm     88 % 0 in /  0.0 mm
01:20 55.8 °F /  13.2 °C 52.3 °F /  11.3 °C 29.9 in /  1013.8 hPa WNW 1.2 mph /  1.9 km/h 1.2 mph /  1.9 km/h 88 % 0 in /  0.0 mm
01:25 55.8 °F /  13.2 °C 52.3 °F /  11.3 °C 30 in /  1014.8 hPa Calm     88 % 0 in /  0.0 mm
01:30 55.8 °F /  13.2 °C 52.3 °F /  11.3 °C 30 in /  1014.8 hPa West 1.2 mph /  1.9 km/h 1.2 mph /  1.9 km/h 88 % 0 in /  0.0 mm
01:35 55.8 °F /  13.2 °C 52.3 °F /  11.3 °C 30 in /  1014.8 hPa West 1.4 mph /  2.3 km/h 1.4 mph /  2.3 km/h 88 % 0 in /  0.0 mm
01:40 55.8 °F /  13.2 °C 52.5 °F /  11.4 °C 30 in /  1014.8 hPa Calm     89 % 0 in /  0.0 mm
01:45 55.8 °F /  13.2 °C 52.5 °F /  11.4 °C 30 in /  1014.8 hPa Calm     89 % 0 in /  0.0 mm
01:50 55.8 °F /  13.2 °C 52.5 °F /  11.4 °C 30 in /  1014.8 hPa Calm     89 % 0 in /  0.0 mm
01:55 55.8 °F /  13.2 °C 52.5 °F /  11.4 °C 29.9 in /  1013.8 hPa Calm     89 % 0 in /  0.0 mm
02:00 55.8 °F /  13.2 °C 52.5 °F /  11.4 °C 29.9 in /  1013.8 hPa Calm     89 % 0 in /  0.0 mm
02:05 55.8 °F /  13.2 °C 52.5 °F /  11.4 °C 29.9 in /  1013.8 hPa Calm     89 % 0 in /  0.0 mm
02:10 55.9 °F /  13.3 °C 52.7 °F /  11.5 °C 29.9 in /  1013.8 hPa North 1.2 mph /  1.9 km/h   89 % 0 in /  0.0 mm
02:15 55.9 °F /  13.3 °C 52.7 °F /  11.5 °C 29.9 in /  1013.8 hPa Calm     89 % 0 in /  0.0 mm
02:20 55.9 °F /  13.3 °C 53.1 °F /  11.7 °C 29.9 in /  1013.8 hPa Calm     90 % 0 in /  0.0 mm
02:21 55.9 °F /  13.3 °C 53.1 °F /  11.7 °C 29.9 in /  1013.8 hPa Calm     90 % 0 in /  0.0 mm
02:26 55.9 °F /  13.3 °C 53.1 °F /  11.7 °C 29.9 in /  1013.8 hPa Calm     90 % 0 in /  0.0 mm
02:31 55.8 °F /  13.2 °C 52.5 °F /  11.4 °C 29.9 in /  1013.8 hPa Calm     89 % 0 in /  0.0 mm
02:36 55.8 °F /  13.2 °C 52.5 °F /  11.4 °C 29.9 in /  1013.8 hPa Calm     89 % 0 in /  0.0 mm
02:41 55.8 °F /  13.2 °C 52.9 °F /  11.6 °C 29.9 in /  1013.8 hPa Calm     90 % 0 in /  0.0 mm
02:46 55.8 °F /  13.2 °C 52.9 °F /  11.6 °C 29.9 in /  1013.8 hPa Calm     90 % 0 in /  0.0 mm
02:51 55.8 °F /  13.2 °C 52.5 °F /  11.4 °C 29.9 in /  1013.8 hPa Calm     89 % 0 in /  0.0 mm
02:56 55.8 °F /  13.2 °C 52.9 °F /  11.6 °C 29.9 in /  1013.8 hPa Calm     90 % 0 in /  0.0 mm
03:01 55.8 °F /  13.2 °C 52.9 °F /  11.6 °C 29.9 in /  1013.8 hPa Calm     90 % 0 in /  0.0 mm
03:06 55.9 °F /  13.3 °C 53.1 °F /  11.7 °C 29.9 in /  1013.8 hPa Calm     90 % 0 in /  0.0 mm
03:11 55.9 °F /  13.3 °C 53.1 °F /  11.7 °C 29.9 in /  1013.8 hPa Calm     90 % 0 in /  0.0 mm
03:16 55.6 °F /  13.1 °C 52.7 °F /  11.5 °C 29.9 in /  1013.8 hPa Calm     90 % 0 in /  0.0 mm
03:21 55.8 °F /  13.2 °C 52.9 °F /  11.6 °C 29.9 in /  1013.8 hPa Calm     90 % 0 in /  0.0 mm
03:26 55.6 °F /  13.1 °C 52.7 °F /  11.5 °C 29.9 in /  1013.8 hPa Calm     90 % 0 in /  0.0 mm
03:31 55.6 °F /  13.1 °C 52.7 °F /  11.5 °C 29.9 in /  1013.8 hPa Calm     90 % 0 in /  0.0 mm
03:36 55.6 °F /  13.1 °C 52.7 °F /  11.5 °C 29.9 in /  1013.8 hPa Calm     90 % 0 in /  0.0 mm
03:41 55.6 °F /  13.1 °C 52.7 °F /  11.5 °C 29.9 in /  1013.8 hPa Calm     90 % 0 in /  0.0 mm
03:46 55.4 °F /  13.0 °C 52.5 °F /  11.4 °C 29.9 in /  1013.8 hPa SW 2.3 mph /  3.7 km/h 2.3 mph /  3.7 km/h 90 % 0 in /  0.0 mm
03:51 55.2 °F /  12.9 °C 52 °F /  11.1 °C 29.9 in /  1013.8 hPa SW 1.4 mph /  2.3 km/h 1.4 mph /  2.3 km/h 89 % 0 in /  0.0 mm
03:56 55.2 °F /  12.9 °C 52.3 °F /  11.3 °C 29.9 in /  1013.8 hPa Calm     90 % 0 in /  0.0 mm
04:01 55.2 °F /  12.9 °C 52.3 °F /  11.3 °C 29.9 in /  1013.8 hPa Calm     90 % 0 in /  0.0 mm
04:06 55.4 °F /  13.0 °C 52.5 °F /  11.4 °C 29.9 in /  1013.8 hPa Calm     90 % 0 in /  0.0 mm
04:11 55.4 °F /  13.0 °C 52.5 °F /  11.4 °C 29.9 in /  1013.8 hPa North 1.2 mph /  1.9 km/h   90 % 0 in /  0.0 mm
04:19 55.6 °F /  13.1 °C 52.7 °F /  11.5 °C 29.9 in /  1013.8 hPa NNW 1.2 mph /  1.9 km/h   90 % 0 in /  0.0 mm
04:21 55.6 °F /  13.1 °C 52.7 °F /  11.5 °C 29.9 in /  1013.8 hPa North 1.2 mph /  1.9 km/h 1.2 mph /  1.9 km/h 90 % 0 in /  0.0 mm
04:23 55.6 °F /  13.1 °C 52.7 °F /  11.5 °C 29.9 in /  1013.8 hPa WNW 2.3 mph /  3.7 km/h 2.3 mph /  3.7 km/h 90 % 0 in /  0.0 mm
04:26 55.6 °F /  13.1 °C 52.7 °F /  11.5 °C 29.9 in /  1013.8 hPa NNW 3.1 mph /  5.0 km/h 3.1 mph /  5.0 km/h 90 % 0 in /  0.0 mm
04:27 55.8 °F /  13.2 °C 52.9 °F /  11.6 °C 29.9 in /  1013.8 hPa ENE 3.5 mph /  5.6 km/h 3.5 mph /  5.6 km/h 90 % 0 in /  0.0 mm
04:30 55.8 °F /  13.2 °C 52.9 °F /  11.6 °C 29.9 in /  1013.8 hPa North 3.5 mph /  5.6 km/h 3.5 mph /  5.6 km/h 90 % 0 in /  0.0 mm
04:35 55.9 °F /  13.3 °C 53.1 °F /  11.7 °C 29.9 in /  1013.8 hPa NNE 1 mph /  1.6 km/h 4 mph /  6.4 km/h 90 % 0 in /  0.0 mm
04:40 56.1 °F /  13.4 °C 53.2 °F /  11.8 °C 29.9 in /  1013.8 hPa NNE 3 mph /  4.8 km/h 6 mph /  9.7 km/h 90 % 0 in /  0.0 mm
04:45 56.1 °F /  13.4 °C 53.2 °F /  11.8 °C 29.9 in /  1013.8 hPa NNE 3.5 mph /  5.6 km/h 3.5 mph /  5.6 km/h 90 % 0 in /  0.0 mm
04:50 56.3 °F /  13.5 °C 53.1 °F /  11.7 °C 29.9 in /  1013.8 hPa NNE 5.8 mph /  9.3 km/h 5.8 mph /  9.3 km/h 89 % 0 in /  0.0 mm
04:55 56.1 °F /  13.4 °C 53.1 °F /  11.7 °C 29.9 in /  1013.8 hPa NNE 3 mph /  4.8 km/h 7 mph /  11.3 km/h 89 % 0 in /  0.0 mm
05:00 56.1 °F /  13.4 °C 52.9 °F /  11.6 °C 29.9 in /  1013.8 hPa NE 3 mph /  4.8 km/h 6 mph /  9.7 km/h 89 % 0 in /  0.0 mm
05:05 56.1 °F /  13.4 °C 52.9 °F /  11.6 °C 29.9 in /  1013.8 hPa NNE 4.6 mph /  7.4 km/h 4.6 mph /  7.4 km/h 89 % 0 in /  0.0 mm
05:10 56.1 °F /  13.4 °C 52.9 °F /  11.6 °C 29.9 in /  1013.8 hPa North 5.8 mph /  9.3 km/h 5.8 mph /  9.3 km/h 89 % 0 in /  0.0 mm
05:15 55.9 °F /  13.3 °C 52.7 °F /  11.5 °C 29.9 in /  1013.8 hPa NNE 2 mph /  3.2 km/h 5 mph /  8.0 km/h 89 % 0 in /  0.0 mm
05:25 55.9 °F /  13.3 °C 52.7 °F /  11.5 °C 29.9 in /  1012.8 hPa North 3.5 mph /  5.6 km/h 3.5 mph /  5.6 km/h 89 % 0 in /  0.0 mm
05:30 55.9 °F /  13.3 °C 52.7 °F /  11.5 °C 29.9 in /  1012.8 hPa North 2.3 mph /  3.7 km/h   89 % 0 in /  0.0 mm
05:35 56.1 °F /  13.4 °C 52.9 °F /  11.6 °C 29.9 in /  1012.8 hPa North 1 mph /  1.6 km/h 3 mph /  4.8 km/h 89 % 0 in /  0.0 mm
05:40 56.1 °F /  13.4 °C 52.9 °F /  11.6 °C 29.9 in /  1013.8 hPa North 1 mph /  1.6 km/h 2 mph /  3.2 km/h 89 % 0 in /  0.0 mm
05:45 56.1 °F /  13.4 °C 52.9 °F /  11.6 °C 29.9 in /  1013.8 hPa Calm   2 mph /  3.2 km/h 89 % 0 in /  0.0 mm
05:50 56.3 °F /  13.5 °C 53.1 °F /  11.7 °C 29.9 in /  1013.8 hPa Calm     89 % 0 in /  0.0 mm
05:55 56.3 °F /  13.5 °C 53.1 °F /  11.7 °C 29.9 in /  1013.8 hPa Calm     89 % 0 in /  0.0 mm
06:00 56.3 °F /  13.5 °C 53.1 °F /  11.7 °C 29.9 in /  1013.8 hPa Calm     89 % 0 in /  0.0 mm
06:05 56.3 °F /  13.5 °C 53.1 °F /  11.7 °C 29.9 in /  1013.8 hPa Calm     89 % 0 in /  0.0 mm
06:10 56.5 °F /  13.6 °C 53.2 °F /  11.8 °C 29.9 in /  1013.8 hPa NW 2 mph /  3.2 km/h 2 mph /  3.2 km/h 89 % 0 in /  0.0 mm
06:15 56.5 °F /  13.6 °C 53.2 °F /  11.8 °C 29.9 in /  1013.8 hPa Calm     89 % 0 in /  0.0 mm
06:20 56.5 °F /  13.6 °C 53.2 °F /  11.8 °C 29.9 in /  1013.8 hPa North 1.6 mph /  2.6 km/h   89 % 0 in /  0.0 mm
06:25 56.5 °F /  13.6 °C 53.2 °F /  11.8 °C 29.9 in /  1013.8 hPa Calm   2 mph /  3.2 km/h 89 % 0 in /  0.0 mm
06:30 56.7 °F /  13.7 °C 53.4 °F /  11.9 °C 29.9 in /  1013.8 hPa NE 2.3 mph /  3.7 km/h 2.3 mph /  3.7 km/h 89 % 0 in /  0.0 mm
06:35 56.7 °F /  13.7 °C 53.4 °F /  11.9 °C 29.9 in /  1013.8 hPa NE 2 mph /  3.2 km/h 3 mph /  4.8 km/h 89 % 0 in /  0.0 mm
06:40 56.7 °F /  13.7 °C 53.4 °F /  11.9 °C 29.9 in /  1013.8 hPa Calm   3 mph /  4.8 km/h 89 % 0 in /  0.0 mm
06:45 56.5 °F /  13.6 °C 53.1 °F /  11.7 °C 29.9 in /  1013.8 hPa NE 1.2 mph /  1.9 km/h   88 % 0 in /  0.0 mm
06:50 56.5 °F /  13.6 °C 53.1 °F /  11.7 °C 29.9 in /  1013.8 hPa ENE 2.3 mph /  3.7 km/h   88 % 0 in /  0.0 mm
06:55 56.5 °F /  13.6 °C 53.2 °F /  11.8 °C 29.9 in /  1013.8 hPa WSW 1 mph /  1.6 km/h 2 mph /  3.2 km/h 89 % 0 in /  0.0 mm
07:00 56.5 °F /  13.6 °C 53.2 °F /  11.8 °C 29.9 in /  1013.8 hPa Calm     89 % 0 in /  0.0 mm
07:05 56.5 °F /  13.6 °C 53.2 °F /  11.8 °C 29.9 in /  1013.8 hPa SW 2.3 mph /  3.7 km/h 2.3 mph /  3.7 km/h 89 % 0 in /  0.0 mm
07:10 56.5 °F /  13.6 °C 53.2 °F /  11.8 °C 29.9 in /  1013.8 hPa SW 1.2 mph /  1.9 km/h 1.2 mph /  1.9 km/h 89 % 0 in /  0.0 mm
07:15 56.5 °F /  13.6 °C 53.2 °F /  11.8 °C 29.9 in /  1013.8 hPa Calm   2 mph /  3.2 km/h 89 % 0 in /  0.0 mm
07:20 56.5 °F /  13.6 °C 53.2 °F /  11.8 °C 29.9 in /  1013.8 hPa Calm   1 mph /  1.6 km/h 89 % 0 in /  0.0 mm
07:25 56.5 °F /  13.6 °C 53.2 °F /  11.8 °C 29.9 in /  1013.8 hPa NE 0.9 mph /  1.4 km/h 1.4 mph /  2.3 km/h 89 % 0 in /  0.0 mm
07:30 56.7 °F /  13.7 °C 53.4 °F /  11.9 °C 29.9 in /  1013.8 hPa WSW 2.3 mph /  3.7 km/h 2.3 mph /  3.7 km/h 89 % 0 in /  0.0 mm
07:35 56.7 °F /  13.7 °C 53.4 °F /  11.9 °C 29.9 in /  1013.8 hPa ENE 1.2 mph /  1.9 km/h 1.2 mph /  1.9 km/h 89 % 0 in /  0.0 mm
07:40 56.7 °F /  13.7 °C 53.4 °F /  11.9 °C 29.9 in /  1013.8 hPa Calm     89 % 0 in /  0.0 mm
07:45 56.7 °F /  13.7 °C 53.4 °F /  11.9 °C 29.9 in /  1013.8 hPa Calm     89 % 0 in /  0.0 mm
07:50 56.8 °F /  13.8 °C 53.6 °F /  12.0 °C 29.9 in /  1013.8 hPa NNE 1.2 mph /  1.9 km/h 1.2 mph /  1.9 km/h 89 % 0 in /  0.0 mm
07:55 56.8 °F /  13.8 °C 53.6 °F /  12.0 °C 29.9 in /  1013.8 hPa Calm     89 % 0 in /  0.0 mm
08:00 56.8 °F /  13.8 °C 53.6 °F /  12.0 °C 29.9 in /  1013.8 hPa Calm   2 mph /  3.2 km/h 89 % 0 in /  0.0 mm
08:05 56.8 °F /  13.8 °C 53.6 °F /  12.0 °C 29.9 in /  1013.8 hPa NE 1 mph /  1.6 km/h 2 mph /  3.2 km/h 89 % 0 in /  0.0 mm
08:10 56.7 °F /  13.7 °C 53.4 °F /  11.9 °C 29.9 in /  1013.8 hPa ENE 2.3 mph /  3.7 km/h 2.3 mph /  3.7 km/h 89 % 0 in /  0.0 mm
08:15 56.7 °F /  13.7 °C 53.4 °F /  11.9 °C 29.9 in /  1013.8 hPa Calm     89 % 0 in /  0.0 mm
08:20 56.7 °F /  13.7 °C 53.4 °F /  11.9 °C 29.9 in /  1013.8 hPa SW 2.3 mph /  3.7 km/h   89 % 0 in /  0.0 mm
08:25 56.7 °F /  13.7 °C 53.4 °F /  11.9 °C 29.9 in /  1012.8 hPa SW 2 mph /  3.2 km/h 2 mph /  3.2 km/h 89 % 0 in /  0.0 mm
08:30 56.7 °F /  13.7 °C 53.4 °F /  11.9 °C 29.9 in /  1012.8 hPa Calm   1 mph /  1.6 km/h 89 % 0 in /  0.0 mm
08:35 56.7 °F /  13.7 °C 53.4 °F /  11.9 °C 29.9 in /  1012.8 hPa SW 2.3 mph /  3.7 km/h 2.3 mph /  3.7 km/h 89 % 0 in /  0.0 mm
08:40 56.7 °F /  13.7 °C 53.8 °F /  12.1 °C 29.9 in /  1013.8 hPa SW 1.6 mph /  2.6 km/h 1.6 mph /  2.6 km/h 90 % 0 in /  0.0 mm
08:45 56.5 °F /  13.6 °C 53.2 °F /  11.8 °C 29.9 in /  1013.8 hPa SW 1 mph /  1.6 km/h 2 mph /  3.2 km/h 89 % 0 in /  0.0 mm
08:50 56.5 °F /  13.6 °C 53.2 °F /  11.8 °C 29.9 in /  1013.8 hPa WSW 1 mph /  1.6 km/h 2 mph /  3.2 km/h 89 % 0 in /  0.0 mm
08:55 56.5 °F /  13.6 °C 53.6 °F /  12.0 °C 29.9 in /  1013.8 hPa WSW 1.2 mph /  1.9 km/h   90 % 0 in /  0.0 mm
09:00 56.7 °F /  13.7 °C 53.8 °F /  12.1 °C 29.9 in /  1013.8 hPa WSW 2.2 mph /  3.5 km/h 2.2 mph /  3.5 km/h 90 % 0 in /  0.0 mm
09:05 56.7 °F /  13.7 °C 53.8 °F /  12.1 °C 29.9 in /  1013.8 hPa WSW 1.2 mph /  1.9 km/h 1.2 mph /  1.9 km/h 90 % 0 in /  0.0 mm
09:10 56.8 °F /  13.8 °C 54 °F /  12.2 °C 29.9 in /  1013.8 hPa Calm     90 % 0 in /  0.0 mm
09:15 57.2 °F /  14.0 °C 54.3 °F /  12.4 °C 29.9 in /  1013.8 hPa WNW 1.2 mph /  1.9 km/h 1.2 mph /  1.9 km/h 90 % 0 in /  0.0 mm
09:20 57.4 °F /  14.1 °C 54.9 °F /  12.7 °C 29.9 in /  1013.8 hPa Calm     91 % 0 in /  0.0 mm
09:25 57.6 °F /  14.2 °C 55 °F /  12.8 °C 29.9 in /  1012.8 hPa Calm   2 mph /  3.2 km/h 91 % 0 in /  0.0 mm
09:30 57.9 °F /  14.4 °C 55.2 °F /  12.9 °C 29.9 in /  1012.8 hPa NNE 3.1 mph /  5.0 km/h 3.1 mph /  5.0 km/h 91 % 0 in /  0.0 mm
09:35 58.3 °F /  14.6 °C 55.4 °F /  13.0 °C 29.9 in /  1012.8 hPa NNE 4.9 mph /  7.9 km/h 4.9 mph /  7.9 km/h 90 % 0 in /  0.0 mm
09:40 59.2 °F /  15.1 °C 56.1 °F /  13.4 °C 29.9 in /  1013.8 hPa NNE 2.3 mph /  3.7 km/h 2.3 mph /  3.7 km/h 90 % 0 in /  0.0 mm
09:45 59.7 °F /  15.4 °C 56.5 °F /  13.6 °C 29.9 in /  1013.8 hPa NE 4.6 mph /  7.4 km/h 4.6 mph /  7.4 km/h 89 % 0 in /  0.0 mm
09:50 59.5 °F /  15.3 °C 55.9 °F /  13.3 °C 29.9 in /  1013.8 hPa NE 2 mph /  3.2 km/h 5 mph /  8.0 km/h 88 % 0 in /  0.0 mm
09:55 59.5 °F /  15.3 °C 55.8 °F /  13.2 °C 29.9 in /  1013.8 hPa North 2 mph /  3.2 km/h 4 mph /  6.4 km/h 87 % 0 in /  0.0 mm
10:00 59.5 °F /  15.3 °C 55.2 °F /  12.9 °C 29.9 in /  1013.8 hPa NE 5.8 mph /  9.3 km/h 5.8 mph /  9.3 km/h 86 % 0 in /  0.0 mm
10:05 59.9 °F /  15.5 °C 55.4 °F /  13.0 °C 29.9 in /  1013.8 hPa NNE 4.6 mph /  7.4 km/h 4.6 mph /  7.4 km/h 85 % 0 in /  0.0 mm
10:10 59.9 °F /  15.5 °C 55.4 °F /  13.0 °C 29.9 in /  1013.8 hPa NNE 1 mph /  1.6 km/h 6 mph /  9.7 km/h 85 % 0 in /  0.0 mm
10:15 60.3 °F /  15.7 °C 55.4 °F /  13.0 °C 29.9 in /  1013.8 hPa NNE 3 mph /  4.8 km/h 6 mph /  9.7 km/h 84 % 0 in /  0.0 mm
10:20 61.3 °F /  16.3 °C 56.5 °F /  13.6 °C 29.9 in /  1013.8 hPa NW 2.4 mph /  3.9 km/h 2.4 mph /  3.9 km/h 84 % 0 in /  0.0 mm
10:25 61.9 °F /  16.6 °C 56.7 °F /  13.7 °C 29.9 in /  1013.8 hPa NNE 2 mph /  3.2 km/h 7 mph /  11.3 km/h 83 % 0 in /  0.0 mm
10:30 62.1 °F /  16.7 °C 56.5 °F /  13.6 °C 29.9 in /  1013.8 hPa NNE 3 mph /  4.8 km/h 7 mph /  11.3 km/h 82 % 0 in /  0.0 mm
10:35 62.4 °F /  16.9 °C 56.5 °F /  13.6 °C 29.9 in /  1013.8 hPa NNE 2 mph /  3.2 km/h 8 mph /  12.9 km/h 81 % 0 in /  0.0 mm
10:40 63.1 °F /  17.3 °C 56.8 °F /  13.8 °C 29.9 in /  1013.8 hPa NNE 3.5 mph /  5.6 km/h 3.5 mph /  5.6 km/h 80 % 0 in /  0.0 mm
10:45 63.3 °F /  17.4 °C 56.7 °F /  13.7 °C 29.9 in /  1013.8 hPa ENE 2.3 mph /  3.7 km/h 2.3 mph /  3.7 km/h 79 % 0 in /  0.0 mm
10:50 63.3 °F /  17.4 °C 56.7 °F /  13.7 °C 29.9 in /  1013.8 hPa NE 3.5 mph /  5.6 km/h 3.5 mph /  5.6 km/h 79 % 0 in /  0.0 mm
10:55 62.8 °F /  17.1 °C 55.8 °F /  13.2 °C 29.9 in /  1013.8 hPa NE 3 mph /  4.8 km/h 5 mph /  8.0 km/h 78 % 0 in /  0.0 mm
11:00 63.1 °F /  17.3 °C 56.1 °F /  13.4 °C 29.9 in /  1013.8 hPa NNE 2.3 mph /  3.7 km/h 2.4 mph /  3.9 km/h 78 % 0 in /  0.0 mm
11:05 63.3 °F /  17.4 °C 56.3 °F /  13.5 °C 29.9 in /  1013.8 hPa NE 2 mph /  3.2 km/h 3 mph /  4.8 km/h 78 % 0 in /  0.0 mm
11:10 63.7 °F /  17.6 °C 56.7 °F /  13.7 °C 30 in /  1014.8 hPa NNE 2 mph /  3.2 km/h 5 mph /  8.0 km/h 78 % 0 in /  0.0 mm
11:15 64 °F /  17.8 °C 56.7 °F /  13.7 °C 30 in /  1014.8 hPa NE 2 mph /  3.2 km/h 5 mph /  8.0 km/h 77 % 0 in /  0.0 mm
11:20 64.4 °F /  18.0 °C 57 °F /  13.9 °C 30 in /  1014.8 hPa NNE 1 mph /  1.6 km/h 4 mph /  6.4 km/h 77 % 0 in /  0.0 mm
11:25 64.9 °F /  18.3 °C 57.9 °F /  14.4 °C 29.9 in /  1013.8 hPa NNW 1 mph /  1.6 km/h 3 mph /  4.8 km/h 78 % 0 in /  0.0 mm
11:30 65.7 °F /  18.7 °C 58.3 °F /  14.6 °C 29.9 in /  1013.8 hPa North 2.3 mph /  3.7 km/h 2.3 mph /  3.7 km/h 77 % 0 in /  0.0 mm
11:35 65.5 °F /  18.6 °C 57.7 °F /  14.3 °C 29.9 in /  1013.8 hPa NE 2 mph /  3.2 km/h 3 mph /  4.8 km/h 76 % 0 in /  0.0 mm
11:40 65.3 °F /  18.5 °C 57.6 °F /  14.2 °C 29.9 in /  1013.8 hPa Calm   3 mph /  4.8 km/h 76 % 0 in /  0.0 mm
11:45 65.7 °F /  18.7 °C 57.9 °F /  14.4 °C 29.9 in /  1013.8 hPa SW 1.2 mph /  1.9 km/h   76 % 0 in /  0.0 mm
11:50 66 °F /  18.9 °C 58.3 °F /  14.6 °C 29.9 in /  1013.8 hPa NW 1 mph /  1.6 km/h 3 mph /  4.8 km/h 76 % 0 in /  0.0 mm
11:55 66.4 °F /  19.1 °C 58.3 °F /  14.6 °C 29.9 in /  1013.8 hPa NNW 1 mph /  1.6 km/h 2 mph /  3.2 km/h 75 % 0 in /  0.0 mm
12:00 66.4 °F /  19.1 °C 58.3 °F /  14.6 °C 29.9 in /  1013.8 hPa NE 1.4 mph /  2.3 km/h 1.4 mph /  2.3 km/h 75 % 0 in /  0.0 mm
12:05 66 °F /  18.9 °C 57.9 °F /  14.4 °C 29.9 in /  1013.8 hPa NNE 2.3 mph /  3.7 km/h 2.3 mph /  3.7 km/h 75 % 0 in /  0.0 mm
12:10 66.2 °F /  19.0 °C 57.7 °F /  14.3 °C 29.9 in /  1013.8 hPa ENE 2.3 mph /  3.7 km/h 2.3 mph /  3.7 km/h 74 % 0 in /  0.0 mm
12:15 66.2 °F /  19.0 °C 57.7 °F /  14.3 °C 29.9 in /  1013.8 hPa NE 2 mph /  3.2 km/h 4 mph /  6.4 km/h 74 % 0 in /  0.0 mm
12:20 66.4 °F /  19.1 °C 57.7 °F /  14.3 °C 29.9 in /  1013.8 hPa ENE 2 mph /  3.2 km/h 4 mph /  6.4 km/h 74 % 0 in /  0.0 mm
12:25 66.6 °F /  19.2 °C 57.4 °F /  14.1 °C 29.9 in /  1012.8 hPa East 3.5 mph /  5.6 km/h 3.8 mph /  6.1 km/h 72 % 0 in /  0.0 mm
12:30 67.1 °F /  19.5 °C 57.7 °F /  14.3 °C 29.9 in /  1012.8 hPa ESE 2.3 mph /  3.7 km/h 2.3 mph /  3.7 km/h 72 % 0 in /  0.0 mm
12:35 67.6 °F /  19.8 °C 58.3 °F /  14.6 °C 29.9 in /  1012.8 hPa East 3.5 mph /  5.6 km/h 3.5 mph /  5.6 km/h 72 % 0 in /  0.0 mm
12:40 67.8 °F /  19.9 °C 58.5 °F /  14.7 °C 29.9 in /  1011.7 hPa ENE 2 mph /  3.2 km/h 3 mph /  4.8 km/h 72 % 0 in /  0.0 mm
12:45 68.5 °F /  20.3 °C 58.6 °F /  14.8 °C 29.9 in /  1011.7 hPa East 1 mph /  1.6 km/h 4 mph /  6.4 km/h 71 % 0 in /  0.0 mm
12:50 68.5 °F /  20.3 °C 58.5 °F /  14.7 °C 29.9 in /  1011.7 hPa ESE 2.3 mph /  3.7 km/h 2.3 mph /  3.7 km/h 70 % 0 in /  0.0 mm
12:55 68.9 °F /  20.5 °C 58.3 °F /  14.6 °C 29.8 in /  1010.7 hPa ESE 4.9 mph /  7.9 km/h 4.9 mph /  7.9 km/h 69 % 0 in /  0.0 mm
13:00 68.4 °F /  20.2 °C 58.3 °F /  14.6 °C 29.8 in /  1010.7 hPa SE 1 mph /  1.6 km/h 5 mph /  8.0 km/h 70 % 0 in /  0.0 mm
13:05 68.7 °F /  20.4 °C 58.1 °F /  14.5 °C 29.8 in /  1010.7 hPa SSE 2 mph /  3.2 km/h 4 mph /  6.4 km/h 69 % 0 in /  0.0 mm
13:10 69.1 °F /  20.6 °C 58.5 °F /  14.7 °C 29.9 in /  1011.7 hPa NE 3.5 mph /  5.6 km/h 3.5 mph /  5.6 km/h 69 % 0 in /  0.0 mm
13:15 68.7 °F /  20.4 °C 58.1 °F /  14.5 °C 29.9 in /  1011.7 hPa NNW 3.5 mph /  5.6 km/h 3.5 mph /  5.6 km/h 69 % 0 in /  0.0 mm
13:20 69.3 °F /  20.7 °C 58.6 °F /  14.8 °C 29.9 in /  1011.7 hPa SE 2.9 mph /  4.7 km/h 2.9 mph /  4.7 km/h 69 % 0 in /  0.0 mm
13:25 70.2 °F /  21.2 °C 58.6 °F /  14.8 °C 29.9 in /  1011.7 hPa SE 1 mph /  1.6 km/h 3 mph /  4.8 km/h 67 % 0 in /  0.0 mm
13:30 70.7 °F /  21.5 °C 59.5 °F /  15.3 °C 29.9 in /  1011.7 hPa SW 2 mph /  3.2 km/h 5 mph /  8.0 km/h 68 % 0 in /  0.0 mm
13:35 70.7 °F /  21.5 °C 59.2 °F /  15.1 °C 29.9 in /  1011.7 hPa SW 3.5 mph /  5.6 km/h 3.5 mph /  5.6 km/h 67 % 0 in /  0.0 mm
13:40 70.9 °F /  21.6 °C 59 °F /  15.0 °C 29.8 in /  1010.7 hPa SSE 3.5 mph /  5.6 km/h 3.5 mph /  5.6 km/h 66 % 0 in /  0.0 mm
13:45 70.7 °F /  21.5 °C 58.5 °F /  14.7 °C 29.8 in /  1010.7 hPa South 2 mph /  3.2 km/h 3 mph /  4.8 km/h 65 % 0 in /  0.0 mm
13:50 70.7 °F /  21.5 °C 58.8 °F /  14.9 °C 29.8 in /  1010.7 hPa SW 1 mph /  1.6 km/h 3 mph /  4.8 km/h 66 % 0 in /  0.0 mm
13:55 70.9 °F /  21.6 °C 59.4 °F /  15.2 °C 29.8 in /  1010.7 hPa WSW 3 mph /  4.8 km/h 6 mph /  9.7 km/h 67 % 0 in /  0.0 mm
14:00 71.1 °F /  21.7 °C 59.2 °F /  15.1 °C 29.8 in /  1010.7 hPa WNW 3.5 mph /  5.6 km/h 3.5 mph /  5.6 km/h 66 % 0 in /  0.0 mm
14:05 72 °F /  22.2 °C 59.5 °F /  15.3 °C 29.8 in /  1010.7 hPa SW 2 mph /  3.2 km/h 5 mph /  8.0 km/h 65 % 0 in /  0.0 mm
14:10 72 °F /  22.2 °C 59.2 °F /  15.1 °C 29.8 in /  1010.7 hPa WSW 1 mph /  1.6 km/h 3 mph /  4.8 km/h 64 % 0 in /  0.0 mm
14:15 71.8 °F /  22.1 °C 58.8 °F /  14.9 °C 29.8 in /  1010.7 hPa WSW 3.3 mph /  5.3 km/h 3.3 mph /  5.3 km/h 64 % 0 in /  0.0 mm
14:20 71.4 °F /  21.9 °C 58.6 °F /  14.8 °C 29.8 in /  1010.7 hPa SW 3.5 mph /  5.6 km/h   64 % 0 in /  0.0 mm
14:25 71.6 °F /  22.0 °C 58.3 °F /  14.6 °C 29.8 in /  1010.7 hPa SW 1 mph /  1.6 km/h 2 mph /  3.2 km/h 63 % 0 in /  0.0 mm
14:30 71.2 °F /  21.8 °C 58.8 °F /  14.9 °C 29.8 in /  1010.7 hPa SW 3.5 mph /  5.6 km/h 3.5 mph /  5.6 km/h 65 % 0 in /  0.0 mm
14:35 71.1 °F /  21.7 °C 58.3 °F /  14.6 °C 29.8 in /  1010.7 hPa SW 1 mph /  1.6 km/h 3 mph /  4.8 km/h 64 % 0 in /  0.0 mm
14:40 70.7 °F /  21.5 °C 57.9 °F /  14.4 °C 29.8 in /  1010.7 hPa SW 1 mph /  1.6 km/h 3 mph /  4.8 km/h 64 % 0 in /  0.0 mm
14:45 70.9 °F /  21.6 °C 58.5 °F /  14.7 °C 29.8 in /  1010.7 hPa SW 3.5 mph /  5.6 km/h 3.5 mph /  5.6 km/h 65 % 0 in /  0.0 mm
14:50 70.9 °F /  21.6 °C 58.5 °F /  14.7 °C 29.8 in /  1010.7 hPa SW 2 mph /  3.2 km/h 5 mph /  8.0 km/h 65 % 0 in /  0.0 mm
14:55 70.9 °F /  21.6 °C 58.5 °F /  14.7 °C 29.8 in /  1010.7 hPa SW 2 mph /  3.2 km/h 4 mph /  6.4 km/h 65 % 0 in /  0.0 mm
15:00 70.2 °F /  21.2 °C 57 °F /  13.9 °C 29.8 in /  1010.7 hPa ENE 2.3 mph /  3.7 km/h   63 % 0 in /  0.0 mm
15:05 70.5 °F /  21.4 °C 57.7 °F /  14.3 °C 29.8 in /  1010.7 hPa SSW 2.2 mph /  3.5 km/h 2.2 mph /  3.5 km/h 64 % 0 in /  0.0 mm
15:10 70.3 °F /  21.3 °C 57.9 °F /  14.4 °C 29.8 in /  1010.0 hPa WSW 3 mph /  4.8 km/h 5 mph /  8.0 km/h 65 % 0 in /  0.0 mm
15:15 70.3 °F /  21.3 °C 57.6 °F /  14.2 °C 29.8 in /  1010.0 hPa SW 1 mph /  1.6 km/h 5 mph /  8.0 km/h 64 % 0 in /  0.0 mm
15:20 70.5 °F /  21.4 °C 58.3 °F /  14.6 °C 29.8 in /  1010.0 hPa West 2.9 mph /  4.7 km/h 2.9 mph /  4.7 km/h 65 % 0 in /  0.0 mm
15:25 70.5 °F /  21.4 °C 58.3 °F /  14.6 °C 29.8 in /  1010.0 hPa West 4.6 mph /  7.4 km/h 4.6 mph /  7.4 km/h 65 % 0 in /  0.0 mm
15:30 70.7 °F /  21.5 °C 58.5 °F /  14.7 °C 29.8 in /  1010.0 hPa SW 2 mph /  3.2 km/h 5 mph /  8.0 km/h 65 % 0 in /  0.0 mm
15:35 70.9 °F /  21.6 °C 57.9 °F /  14.4 °C 29.8 in /  1010.0 hPa SW 1 mph /  1.6 km/h 5 mph /  8.0 km/h 64 % 0 in /  0.0 mm
15:40 71.1 °F /  21.7 °C 58.3 °F /  14.6 °C 29.8 in /  1010.0 hPa SW 1 mph /  1.6 km/h 3 mph /  4.8 km/h 64 % 0 in /  0.0 mm
15:45 71.2 °F /  21.8 °C 58.5 °F /  14.7 °C 29.8 in /  1010.0 hPa South 2.3 mph /  3.7 km/h 2.3 mph /  3.7 km/h 64 % 0 in /  0.0 mm
15:50 71.2 °F /  21.8 °C 58.5 °F /  14.7 °C 29.8 in /  1010.0 hPa SW 2 mph /  3.2 km/h 5 mph /  8.0 km/h 64 % 0 in /  0.0 mm
15:55 71.6 °F /  22.0 °C 58.8 °F /  14.9 °C 29.8 in /  1010.0 hPa SW 3 mph /  4.8 km/h 5 mph /  8.0 km/h 64 % 0 in /  0.0 mm
16:00 71.2 °F /  21.8 °C 58.3 °F /  14.6 °C 29.8 in /  1010.0 hPa SW 3 mph /  4.8 km/h 6 mph /  9.7 km/h 64 % 0 in /  0.0 mm
16:10 70 °F /  21.1 °C 57.2 °F /  14.0 °C 29.8 in /  1010.0 hPa WSW 3.5 mph /  5.6 km/h 3.5 mph /  5.6 km/h 64 % 0 in /  0.0 mm
16:15 69.6 °F /  20.9 °C 57.4 °F /  14.1 °C 29.8 in /  1010.0 hPa SW 5.8 mph /  9.3 km/h 5.8 mph /  9.3 km/h 65 % 0 in /  0.0 mm
16:20 69.3 °F /  20.7 °C 56.7 °F /  13.7 °C 29.8 in /  1010.0 hPa WSW 5.8 mph /  9.3 km/h 5.8 mph /  9.3 km/h 64 % 0 in /  0.0 mm
16:25 69.1 °F /  20.6 °C 56.5 °F /  13.6 °C 29.8 in /  1010.0 hPa SW 3.5 mph /  5.6 km/h 3.5 mph /  5.6 km/h 64 % 0 in /  0.0 mm
16:30 68.7 °F /  20.4 °C 55.9 °F /  13.3 °C 29.8 in /  1010.0 hPa SW 3.5 mph /  5.6 km/h 3.5 mph /  5.6 km/h 64 % 0 in /  0.0 mm
16:35 68.5 °F /  20.3 °C 56.3 °F /  13.5 °C 29.8 in /  1010.0 hPa West 2.3 mph /  3.7 km/h 2.3 mph /  3.7 km/h 65 % 0 in /  0.0 mm
16:40 68.4 °F /  20.2 °C 56.1 °F /  13.4 °C 29.8 in /  1010.0 hPa SW 2.3 mph /  3.7 km/h 2.3 mph /  3.7 km/h 65 % 0 in /  0.0 mm
16:45 68 °F /  20.0 °C 56.1 °F /  13.4 °C 29.8 in /  1010.0 hPa WNW 3.5 mph /  5.6 km/h 3.5 mph /  5.6 km/h 66 % 0 in /  0.0 mm
16:50 67.3 °F /  19.6 °C 55.9 °F /  13.3 °C 29.8 in /  1010.0 hPa ENE 5.8 mph /  9.3 km/h 5.8 mph /  9.3 km/h 67 % 0 in /  0.0 mm
16:55 66.6 °F /  19.2 °C 55.2 °F /  12.9 °C 29.8 in /  1010.0 hPa NNE 6.9 mph /  11.1 km/h 6.9 mph /  11.1 km/h 67 % 0 in /  0.0 mm
17:00 66 °F /  18.9 °C 55.2 °F /  12.9 °C 29.8 in /  1010.0 hPa WNW 3.5 mph /  5.6 km/h 3.5 mph /  5.6 km/h 68 % 0 in /  0.0 mm
17:05 65.8 °F /  18.8 °C 55.4 °F /  13.0 °C 29.8 in /  1010.0 hPa NNE 3.5 mph /  5.6 km/h 3.5 mph /  5.6 km/h 69 % 0 in /  0.0 mm
17:10 65.7 °F /  18.7 °C 55.2 °F /  12.9 °C 29.8 in /  1010.0 hPa NNE 3.5 mph /  5.6 km/h 3.5 mph /  5.6 km/h 69 % 0 in /  0.0 mm
17:15 65.3 °F /  18.5 °C 54.9 °F /  12.7 °C 29.8 in /  1010.0 hPa NW 2.3 mph /  3.7 km/h 2.3 mph /  3.7 km/h 69 % 0 in /  0.0 mm
17:20 65.1 °F /  18.4 °C 54.7 °F /  12.6 °C 29.8 in /  1010.0 hPa NNE 2.6 mph /  4.2 km/h 2.6 mph /  4.2 km/h 69 % 0 in /  0.0 mm
17:25 64.8 °F /  18.2 °C 54.7 °F /  12.6 °C 29.8 in /  1010.0 hPa NNW 3.5 mph /  5.6 km/h 3.5 mph /  5.6 km/h 70 % 0 in /  0.0 mm
17:30 64.6 °F /  18.1 °C 54.7 °F /  12.6 °C 29.8 in /  1010.0 hPa NW 4.6 mph /  7.4 km/h 4.6 mph /  7.4 km/h 70 % 0 in /  0.0 mm
17:35 64.2 °F /  17.9 °C 54.1 °F /  12.3 °C 29.8 in /  1010.0 hPa NNE 8.1 mph /  13.0 km/h 8.1 mph /  13.0 km/h 70 % 0 in /  0.0 mm
17:40 64 °F /  17.8 °C 54.1 °F /  12.3 °C 29.8 in /  1010.0 hPa NNE 6.9 mph /  11.1 km/h 6.9 mph /  11.1 km/h 70 % 0 in /  0.0 mm
17:45 63.9 °F /  17.7 °C 53.4 °F /  11.9 °C 29.8 in /  1010.0 hPa NNW 3.8 mph /  6.1 km/h 3.8 mph /  6.1 km/h 69 % 0 in /  0.0 mm
17:50 63.7 °F /  17.6 °C 53.2 °F /  11.8 °C 29.8 in /  1010.0 hPa WSW 3.5 mph /  5.6 km/h 3.5 mph /  5.6 km/h 69 % 0 in /  0.0 mm
17:55 63.7 °F /  17.6 °C 53.2 °F /  11.8 °C 29.8 in /  1010.0 hPa NNE 2.3 mph /  3.7 km/h 2.3 mph /  3.7 km/h 69 % 0 in /  0.0 mm
18:00 63.5 °F /  17.5 °C 52.7 °F /  11.5 °C 29.8 in /  1010.0 hPa NNW 2.3 mph /  3.7 km/h 2.3 mph /  3.7 km/h 68 % 0 in /  0.0 mm
18:05 63.5 °F /  17.5 °C 53.1 °F /  11.7 °C 29.8 in /  1010.0 hPa NW 2.9 mph /  4.7 km/h 2.9 mph /  4.7 km/h 69 % 0 in /  0.0 mm
18:10 63.1 °F /  17.3 °C 53.2 °F /  11.8 °C 29.8 in /  1010.7 hPa WNW 4.6 mph /  7.4 km/h 4.6 mph /  7.4 km/h 70 % 0 in /  0.0 mm
18:15 62.4 °F /  16.9 °C 53.2 °F /  11.8 °C 29.8 in /  1010.7 hPa West 3.5 mph /  5.6 km/h 3.5 mph /  5.6 km/h 72 % 0 in /  0.0 mm
18:20 61.2 °F /  16.2 °C 52.3 °F /  11.3 °C 29.8 in /  1010.7 hPa WSW 3.5 mph /  5.6 km/h 3.5 mph /  5.6 km/h 73 % 0 in /  0.0 mm
18:25 59.9 °F /  15.5 °C 52 °F /  11.1 °C 29.9 in /  1011.7 hPa West 3.5 mph /  5.6 km/h 3.5 mph /  5.6 km/h 75 % 0.17 in /  4.3 mm
18:30 59.2 °F /  15.1 °C 51.6 °F /  10.9 °C 29.9 in /  1011.7 hPa WNW 4.6 mph /  7.4 km/h 4.6 mph /  7.4 km/h 76 % 0.33 in /  8.4 mm
18:35 58.8 °F /  14.9 °C 52 °F /  11.1 °C 29.9 in /  1011.7 hPa SW 1.2 mph /  1.9 km/h 1.4 mph /  2.3 km/h 78 % 0.33 in /  8.4 mm
18:40 58.6 °F /  14.8 °C 52.2 °F /  11.2 °C 29.9 in /  1011.7 hPa WSW 1.2 mph /  1.9 km/h 1.2 mph /  1.9 km/h 79 % 0.33 in /  8.4 mm
18:45 58.5 °F /  14.7 °C 52.3 °F /  11.3 °C 29.9 in /  1011.7 hPa Calm     80 % 0.33 in /  8.4 mm
18:50 58.3 °F /  14.6 °C 52.2 °F /  11.2 °C 29.9 in /  1011.7 hPa West 1.2 mph /  1.9 km/h   80 % 0.33 in /  8.4 mm
18:55 58.3 °F /  14.6 °C 52.5 °F /  11.4 °C 29.9 in /  1011.7 hPa Calm     81 % 0.33 in /  8.4 mm
19:00 57.9 °F /  14.4 °C 52.5 °F /  11.4 °C 29.9 in /  1011.7 hPa NE 2.3 mph /  3.7 km/h 2.3 mph /  3.7 km/h 82 % 0.33 in /  8.4 mm
19:05 57.9 °F /  14.4 °C 52.9 °F /  11.6 °C 29.9 in /  1011.7 hPa NE 1.4 mph /  2.3 km/h 1.4 mph /  2.3 km/h 83 % 0.33 in /  8.4 mm
19:10 57.7 °F /  14.3 °C 52.5 °F /  11.4 °C 29.9 in /  1011.7 hPa NE 4.6 mph /  7.4 km/h 4.6 mph /  7.4 km/h 83 % 0.33 in /  8.4 mm
19:15 57.6 °F /  14.2 °C 52.3 °F /  11.3 °C 29.9 in /  1011.7 hPa NNE 2.4 mph /  3.9 km/h 2.4 mph /  3.9 km/h 83 % 0.33 in /  8.4 mm
19:20 57.2 °F /  14.0 °C 52.3 °F /  11.3 °C 29.9 in /  1011.7 hPa ENE 3.5 mph /  5.6 km/h 3.5 mph /  5.6 km/h 84 % 0.58 in /  14.7 mm
19:25 57 °F /  13.9 °C 52.2 °F /  11.2 °C 29.8 in /  1010.7 hPa NNE 3.5 mph /  5.6 km/h 3.5 mph /  5.6 km/h 84 % 0.41 in /  10.4 mm
19:30 56.8 °F /  13.8 °C 52.2 °F /  11.2 °C 29.8 in /  1010.7 hPa Calm     84 % 0.25 in /  6.3 mm
19:35 56.7 °F /  13.7 °C 52 °F /  11.1 °C 29.8 in /  1010.7 hPa Calm     84 % 0.25 in /  6.3 mm
19:40 56.7 °F /  13.7 °C 52 °F /  11.1 °C 29.8 in /  1010.7 hPa WSW 2.3 mph /  3.7 km/h 2.3 mph /  3.7 km/h 84 % 0.25 in /  6.3 mm
19:45 56.8 °F /  13.8 °C 52.2 °F /  11.2 °C 29.8 in /  1010.7 hPa Calm     84 % 0.25 in /  6.3 mm
19:50 56.8 °F /  13.8 °C 52.3 °F /  11.3 °C 29.8 in /  1010.7 hPa SW 2.3 mph /  3.7 km/h 2.3 mph /  3.7 km/h 85 % 0.25 in /  6.3 mm
19:55 56.7 °F /  13.7 °C 52.2 °F /  11.2 °C 29.8 in /  1010.0 hPa SW 1.2 mph /  1.9 km/h 1.2 mph /  1.9 km/h 85 % 0.25 in /  6.3 mm
20:00 56.7 °F /  13.7 °C 52.2 °F /  11.2 °C 29.8 in /  1010.0 hPa SW 2.3 mph /  3.7 km/h 2.3 mph /  3.7 km/h 85 % 0.25 in /  6.3 mm
20:10 56.5 °F /  13.6 °C 51.6 °F /  10.9 °C 29.8 in /  1010.7 hPa WSW 4.6 mph /  7.4 km/h 4.6 mph /  7.4 km/h 84 % 0.25 in /  6.3 mm
20:15 56.5 °F /  13.6 °C 52 °F /  11.1 °C 29.8 in /  1010.7 hPa West 2.6 mph /  4.2 km/h 2.6 mph /  4.2 km/h 85 % 0.25 in /  6.3 mm
20:20 56.5 °F /  13.6 °C 52 °F /  11.1 °C 29.8 in /  1010.7 hPa WSW 3.5 mph /  5.6 km/h 3.5 mph /  5.6 km/h 85 % 0 in /  0.0 mm
20:25 56.5 °F /  13.6 °C 52 °F /  11.1 °C 29.8 in /  1010.7 hPa WSW 4.6 mph /  7.4 km/h 4.6 mph /  7.4 km/h 85 % 0 in /  0.0 mm
20:30 56.5 °F /  13.6 °C 52 °F /  11.1 °C 29.8 in /  1010.7 hPa West 2.6 mph /  4.2 km/h 2.6 mph /  4.2 km/h 85 % 0.04 in /  1.0 mm
20:35 56.5 °F /  13.6 °C 52.7 °F /  11.5 °C 29.8 in /  1010.7 hPa SW 2.3 mph /  3.7 km/h   87 % 0.04 in /  1.0 mm
20:41 56.7 °F /  13.7 °C 52.9 °F /  11.6 °C 29.8 in /  1010.7 hPa Calm     87 % 0.08 in /  2.0 mm
20:46 56.7 °F /  13.7 °C 53.1 °F /  11.7 °C 29.8 in /  1010.7 hPa Calm     88 % 0.08 in /  2.0 mm
20:51 56.7 °F /  13.7 °C 53.1 °F /  11.7 °C 29.8 in /  1010.7 hPa Calm     88 % 0.08 in /  2.0 mm
20:56 56.7 °F /  13.7 °C 53.4 °F /  11.9 °C 29.8 in /  1010.0 hPa Calm     89 % 0.08 in /  2.0 mm
21:01 56.7 °F /  13.7 °C 53.4 °F /  11.9 °C 29.8 in /  1010.0 hPa Calm     89 % 0.08 in /  2.0 mm
21:06 56.7 °F /  13.7 °C 53.4 °F /  11.9 °C 29.8 in /  1010.0 hPa Calm     89 % 0.08 in /  2.0 mm
21:11 56.7 °F /  13.7 °C 53.4 °F /  11.9 °C 29.8 in /  1010.0 hPa SSW 1.6 mph /  2.6 km/h 1.6 mph /  2.6 km/h 89 % 0.08 in /  2.0 mm
21:16 56.7 °F /  13.7 °C 53.4 °F /  11.9 °C 29.8 in /  1010.0 hPa SW 1.4 mph /  2.3 km/h 1.4 mph /  2.3 km/h 89 % 0.08 in /  2.0 mm
21:21 56.7 °F /  13.7 °C 53.4 °F /  11.9 °C 29.8 in /  1010.0 hPa SW 2.3 mph /  3.7 km/h 2.3 mph /  3.7 km/h 89 % 0.08 in /  2.0 mm
21:26 56.5 °F /  13.6 °C 53.2 °F /  11.8 °C 29.8 in /  1010.7 hPa SW 2.2 mph /  3.5 km/h 2.2 mph /  3.5 km/h 89 % 0.08 in /  2.0 mm
21:31 56.5 °F /  13.6 °C 53.2 °F /  11.8 °C 29.8 in /  1010.7 hPa SW 2.3 mph /  3.7 km/h 2.3 mph /  3.7 km/h 89 % 0.08 in /  2.0 mm
21:36 56.3 °F /  13.5 °C 53.1 °F /  11.7 °C 29.8 in /  1010.7 hPa Calm     89 % 0.04 in /  1.0 mm
21:41 56.3 °F /  13.5 °C 53.1 °F /  11.7 °C 29.8 in /  1010.7 hPa WSW 2.3 mph /  3.7 km/h 2.3 mph /  3.7 km/h 89 % 0.04 in /  1.0 mm
21:46 56.5 °F /  13.6 °C 53.2 °F /  11.8 °C 29.8 in /  1010.7 hPa Calm     89 % 0 in /  0.0 mm
21:51 56.5 °F /  13.6 °C 53.6 °F /  12.0 °C 29.8 in /  1010.7 hPa Calm     90 % 0 in /  0.0 mm
21:56 56.5 °F /  13.6 °C 53.6 °F /  12.0 °C 29.8 in /  1010.7 hPa SW 1.2 mph /  1.9 km/h   90 % 0 in /  0.0 mm
22:01 56.3 °F /  13.5 °C 53.4 °F /  11.9 °C 29.8 in /  1010.7 hPa SW 1.6 mph /  2.6 km/h   90 % 0 in /  0.0 mm
22:06 56.3 °F /  13.5 °C 53.1 °F /  11.7 °C 29.9 in /  1011.7 hPa WSW 2.3 mph /  3.7 km/h 2.3 mph /  3.7 km/h 89 % 0 in /  0.0 mm
22:11 56.3 °F /  13.5 °C 53.1 °F /  11.7 °C 29.9 in /  1011.7 hPa WSW 2.3 mph /  3.7 km/h 2.3 mph /  3.7 km/h 89 % 0 in /  0.0 mm
22:16 56.3 °F /  13.5 °C 53.4 °F /  11.9 °C 29.9 in /  1011.7 hPa WSW 1.2 mph /  1.9 km/h   90 % 0 in /  0.0 mm
22:21 56.3 °F /  13.5 °C 53.4 °F /  11.9 °C 29.9 in /  1011.7 hPa SW 1.2 mph /  1.9 km/h   90 % 0 in /  0.0 mm
22:26 56.1 °F /  13.4 °C 53.2 °F /  11.8 °C 29.9 in /  1011.7 hPa ESE 1.2 mph /  1.9 km/h 1.2 mph /  1.9 km/h 90 % 0 in /  0.0 mm
22:27 56.1 °F /  13.4 °C 53.2 °F /  11.8 °C 29.9 in /  1011.7 hPa ESE 1.2 mph /  1.9 km/h   90 % 0 in /  0.0 mm
22:32 56.1 °F /  13.4 °C 53.4 °F /  11.9 °C 29.9 in /  1011.7 hPa Calm     91 % 0 in /  0.0 mm
22:33 56.1 °F /  13.4 °C 53.4 °F /  11.9 °C 29.9 in /  1011.7 hPa Calm     91 % 0 in /  0.0 mm
22:38 56.3 °F /  13.5 °C 53.8 °F /  12.1 °C 29.8 in /  1010.7 hPa Calm     91 % 0 in /  0.0 mm
22:43 56.1 °F /  13.4 °C 53.4 °F /  11.9 °C 29.8 in /  1010.7 hPa Calm     91 % 0 in /  0.0 mm
22:48 56.1 °F /  13.4 °C 53.4 °F /  11.9 °C 29.8 in /  1010.7 hPa Calm     91 % 0 in /  0.0 mm
22:53 56.3 °F /  13.5 °C 53.8 °F /  12.1 °C 29.8 in /  1010.7 hPa Calm     91 % 0 in /  0.0 mm
22:55 56.3 °F /  13.5 °C 53.8 °F /  12.1 °C 29.8 in /  1010.7 hPa SW 2.4 mph /  3.9 km/h   91 % 0 in /  0.0 mm
23:00 56.3 °F /  13.5 °C 53.8 °F /  12.1 °C 29.8 in /  1010.7 hPa SW 0.9 mph /  1.4 km/h   91 % 0 in /  0.0 mm
23:05 56.3 °F /  13.5 °C 53.8 °F /  12.1 °C 29.8 in /  1010.7 hPa SW 2 mph /  3.2 km/h   91 % 0 in /  0.0 mm
23:10 56.1 °F /  13.4 °C 53.4 °F /  11.9 °C 29.8 in /  1010.7 hPa SW 2.4 mph /  3.9 km/h 2.4 mph /  3.9 km/h 91 % 0 in /  0.0 mm
23:15 56.3 °F /  13.5 °C 53.8 °F /  12.1 °C 29.8 in /  1010.7 hPa SW 2.3 mph /  3.7 km/h 2.3 mph /  3.7 km/h 91 % 0 in /  0.0 mm
23:20 56.3 °F /  13.5 °C 53.8 °F /  12.1 °C 29.8 in /  1010.7 hPa WSW 2.4 mph /  3.9 km/h 2.4 mph /  3.9 km/h 91 % 0 in /  0.0 mm
23:25 56.3 °F /  13.5 °C 53.4 °F /  11.9 °C 29.8 in /  1010.7 hPa WSW 2.3 mph /  3.7 km/h 2.3 mph /  3.7 km/h 90 % 0 in /  0.0 mm
23:30 56.3 °F /  13.5 °C 53.8 °F /  12.1 °C 29.8 in /  1010.7 hPa Calm     91 % 0 in /  0.0 mm
23:35 56.3 °F /  13.5 °C 53.8 °F /  12.1 °C 29.8 in /  1010.7 hPa Calm     91 % 0 in /  0.0 mm
23:40 56.1 °F /  13.4 °C 53.4 °F /  11.9 °C 29.8 in /  1010.7 hPa WSW 2.3 mph /  3.7 km/h   91 % 0 in /  0.0 mm
23:45 56.1 °F /  13.4 °C 53.4 °F /  11.9 °C 29.8 in /  1010.7 hPa SW 2.3 mph /  3.7 km/h   91 % 0 in /  0.0 mm
23:50 55.9 °F /  13.3 °C 53.4 °F /  11.9 °C 29.8 in /  1010.7 hPa Calm     91 % 0 in /  0.0 mm
23:55 55.9 °F /  13.3 °C 53.4 °F /  11.9 °C 29.8 in /  1010.0 hPa SW 2.3 mph /  3.7 km/h 2.3 mph /  3.7 km/h 91 % 0 in /  0.0 mm
Meteo Sesrovires
Elogis d' Weather Underground - 4 mb

Guio original per  Jim McMurry - jmcmurry@mwt.net Adaptat per a la plantilla per  Wim van der Kuil - Leuven-Template.eu

Trobareu la nostra informacio del temps tambe a:

Weather Underground

AWEKAS